Time;durP1;ratioP1;P1;durP2;ratioP2;P2;SDS_P1;SDS_P2;PMS_P1;PMS_P2;Temp;Humidity;BMP_temperature;BMP_pressure;BME280_temperature;BME280_humidity;BME280_pressure;Samples;Min_cycle;Max_cycle;Signal;HPM_P1;HPM_P2
2022/05/16 00:01:06;;;;;;;2.78;1.90;;;;;;;18.75;71.74;96695.72;5056307;28;20045;-68
2022/05/16 00:03:32;;;;;;;4.93;2.10;;;;;;;18.70;72.30;96710.84;5058529;28;20553;-66
2022/05/16 00:05:57;;;;;;;3.53;1.77;;;;;;;18.66;72.80;96696.25;5058010;28;20044;-67
2022/05/16 00:08:23;;;;;;;7.32;1.83;;;;;;;18.74;72.34;96696.91;5069977;28;20594;-68
2022/05/16 00:10:49;;;;;;;7.40;2.20;;;;;;;18.82;71.45;96692.88;5064734;28;20044;-67
2022/05/16 00:13:14;;;;;;;3.30;1.92;;;;;;;18.93;70.85;96689.91;5054073;28;20501;-67
2022/05/16 00:15:40;;;;;;;5.45;2.13;;;;;;;18.82;71.78;96690.09;5041468;28;20048;-69
2022/05/16 00:18:06;;;;;;;6.63;1.88;;;;;;;18.81;72.66;96690.47;5014065;28;20061;-68
2022/05/16 00:20:33;;;;;;;2.67;1.77;;;;;;;18.70;74.90;96685.09;5053713;28;20071;-67
2022/05/16 00:22:58;;;;;;;6.15;2.17;;;;;;;18.61;76.29;96688.41;5060258;28;20049;-67
2022/05/16 00:25:23;;;;;;;5.18;2.20;;;;;;;18.61;76.86;96674.53;5056960;28;20233;-68
2022/05/16 00:27:49;;;;;;;3.22;1.90;;;;;;;18.43;77.47;96679.59;5060640;28;20048;-68
2022/05/16 00:30:18;;;;;;;6.40;2.05;;;;;;;18.30;78.72;96682.16;5055618;28;20501;-67
2022/05/16 00:32:45;;;;;;;6.03;1.92;;;;;;;18.25;79.24;96679.84;5063001;28;20373;-67
2022/05/16 00:35:11;;;;;;;4.32;2.00;;;;;;;18.36;78.36;96682.47;5057360;28;20036;-68
2022/05/16 00:37:37;;;;;;;3.47;1.63;;;;;;;18.45;78.23;96691.03;5062025;28;20047;-68
2022/05/16 00:40:05;;;;;;;6.22;2.05;;;;;;;18.31;78.58;96683.69;5061042;28;20045;-68
2022/05/16 00:42:30;;;;;;;4.10;2.20;;;;;;;18.20;79.21;96688.63;5062225;28;20132;-66
2022/05/16 00:44:56;;;;;;;5.22;2.35;;;;;;;18.05;81.03;96693.59;5063663;28;20521;-66
2022/05/16 00:47:21;;;;;;;3.85;2.20;;;;;;;17.96;81.54;96685.78;5057954;28;21921;-68
2022/05/16 00:49:51;;;;;;;6.00;2.50;;;;;;;18.07;81.72;96689.19;5064540;28;20043;-67
2022/05/16 00:52:38;;;;;;;6.07;2.00;;;;;;;18.12;81.96;96680.41;5058342;28;20051;-67
2022/05/16 00:55:12;;;;;;;7.30;2.35;;;;;;;18.15;82.52;96676.81;5060198;28;20052;-66
2022/05/16 00:57:44;;;;;;;3.10;2.10;;;;;;;18.13;82.46;96679.22;5043997;28;20101;-67
2022/05/16 01:00:18;;;;;;;4.82;2.80;;;;;;;18.00;82.26;96674.66;5059052;28;20044;-66
2022/05/16 01:05:36;;;;;;;4.43;2.25;;;;;;;18.18;83.47;96680.72;5061184;28;20070;-67
2022/05/16 01:08:09;;;;;;;4.47;2.35;;;;;;;18.11;83.22;96680.81;5053285;28;20094;-67
2022/05/16 01:10:35;;;;;;;3.55;2.10;;;;;;;17.68;85.62;96668.28;5061726;28;20059;-67
2022/05/16 01:13:03;;;;;;;6.10;2.50;;;;;;;17.19;88.89;96676.72;5061967;28;20127;-66
2022/05/16 01:15:33;;;;;;;6.88;2.50;;;;;;;17.18;89.16;96671.63;5057901;28;20044;-67
2022/05/16 01:17:59;;;;;;;3.67;2.50;;;;;;;17.15;88.42;96670.44;5062045;28;20044;-67
2022/05/16 01:20:50;;;;;;;3.88;2.30;;;;;;;17.16;88.77;96665.69;5038743;28;20603;-68
2022/05/16 01:23:20;;;;;;;4.38;2.35;;;;;;;17.28;88.72;96673.47;5056960;28;20044;-67
2022/05/16 01:25:45;;;;;;;4.43;2.60;;;;;;;17.24;88.25;96667.19;5058248;28;20032;-68
2022/05/16 01:28:11;;;;;;;4.47;2.55;;;;;;;17.13;89.89;96672.06;5057339;28;20158;-67
2022/05/16 01:30:41;;;;;;;4.60;2.30;;;;;;;17.10;90.54;96665.34;5060806;28;20535;-67
2022/05/16 01:33:07;;;;;;;7.47;2.65;;;;;;;17.13;91.50;96663.75;5055784;28;20409;-68
2022/05/16 01:35:33;;;;;;;4.65;2.50;;;;;;;17.31;90.36;96664.34;5040989;28;20044;-67
2022/05/16 01:40:44;;;;;;;6.10;2.58;;;;;;;16.45;95.73;96659.56;5061521;28;20600;-67
2022/05/16 01:43:11;;;;;;;5.25;2.40;;;;;;;16.21;97.67;96655.81;5036525;28;20979;-66
2022/05/16 01:45:39;;;;;;;9.15;2.67;;;;;;;16.10;99.50;96660.59;5058971;28;20719;-68
2022/05/16 01:48:05;;;;;;;4.18;2.03;;;;;;;16.13;97.92;96662.56;5038091;28;20086;-67
2022/05/16 01:50:31;;;;;;;3.72;2.30;;;;;;;16.30;97.59;96663.66;5060151;28;20052;-68
2022/05/16 01:52:56;;;;;;;6.90;2.60;;;;;;;16.43;95.00;96659.19;5060741;28;20037;-69
2022/05/16 01:55:22;;;;;;;7.97;2.50;;;;;;;16.56;94.45;96656.72;5054718;28;20544;-68
2022/05/16 01:57:47;;;;;;;4.13;2.33;;;;;;;16.66;93.96;96666.91;5060151;28;20358;-70
2022/05/16 02:00:15;;;;;;;4.65;2.38;;;;;;;16.76;94.12;96668.81;5056559;28;20041;-67
2022/05/16 02:02:42;;;;;;;4.43;2.22;;;;;;;17.15;91.91;96675.97;5061837;28;20052;-67
2022/05/16 02:05:18;;;;;;;5.20;2.63;;;;;;;17.18;91.31;96683.47;5042414;28;20041;-68
2022/05/16 02:07:45;;;;;;;6.75;3.03;;;;;;;16.95;93.08;96675.00;5070767;28;20508;-69
2022/05/16 02:10:12;;;;;;;5.15;2.60;;;;;;;16.87;94.16;96677.06;5074030;28;20036;-67
2022/05/16 02:12:39;;;;;;;7.40;2.67;;;;;;;16.49;97.18;96662.31;5060505;28;20052;-67
2022/05/16 02:15:08;;;;;;;7.53;2.60;;;;;;;16.33;98.25;96657.28;5058254;28;20497;-68
2022/05/16 02:17:34;;;;;;;5.82;2.92;;;;;;;16.40;97.95;96658.03;5059429;28;20048;-68
2022/05/16 02:20:00;;;;;;;3.20;2.30;;;;;;;16.62;96.71;96666.16;5057315;28;20036;-67
2022/05/16 02:25:10;;;;;;;5.65;2.35;;;;;;;16.69;95.40;96679.94;5054229;28;20082;-65
2022/05/16 02:27:36;;;;;;;4.55;2.53;;;;;;;16.71;96.10;96663.72;5059370;28;20101;-68
2022/05/16 02:30:04;;;;;;;5.00;2.70;;;;;;;16.72;96.73;96668.03;5058286;28;20048;-66
2022/05/16 02:32:30;;;;;;;6.00;2.55;;;;;;;16.75;96.69;96669.22;5022995;28;20051;-67
2022/05/16 02:34:55;;;;;;;4.18;2.38;;;;;;;16.79;96.76;96670.75;5058159;28;20051;-67
2022/05/16 02:37:21;;;;;;;5.57;2.75;;;;;;;16.92;95.99;96664.75;5054062;28;20493;-67
2022/05/16 02:39:47;;;;;;;9.75;3.08;;;;;;;16.18;100.00;96668.44;5059952;28;20119;-67
2022/05/16 02:42:14;;;;;;;6.22;3.13;;;;;;;15.88;100.00;96679.25;5055029;28;20040;-67
2022/05/16 02:44:41;;;;;;;3.80;2.35;;;;;;;15.94;100.00;96678.44;5058498;28;20032;-67
2022/05/16 02:47:06;;;;;;;5.22;2.45;;;;;;;16.14;100.00;96666.91;5054364;28;20044;-67
2022/05/16 02:49:32;;;;;;;5.47;2.53;;;;;;;15.91;100.00;96662.66;5057656;28;20076;-66
2022/05/16 02:51:58;;;;;;;7.32;3.42;;;;;;;15.54;100.00;96666.75;5059918;28;20105;-66
2022/05/16 02:54:24;;;;;;;10.02;3.08;;;;;;;15.20;100.00;96681.06;5061137;28;20606;-65
2022/05/16 02:56:49;;;;;;;5.88;2.90;;;;;;;15.30;100.00;96687.72;5070964;28;20048;-67
2022/05/16 02:59:15;;;;;;;4.47;2.80;;;;;;;15.55;100.00;96686.88;5075893;28;20035;-66
2022/05/16 03:01:40;;;;;;;3.78;2.75;;;;;;;15.81;100.00;96686.41;5081107;28;20043;-66
2022/05/16 03:04:06;;;;;;;4.72;3.40;;;;;;;15.96;100.00;96681.59;5054832;28;20065;-65
2022/05/16 03:06:32;;;;;;;9.35;3.13;;;;;;;16.01;100.00;96681.16;5058345;28;20747;-65
2022/05/16 03:08:57;;;;;;;6.03;2.50;;;;;;;16.26;100.00;96683.00;5071435;28;20039;-67
2022/05/16 03:11:23;;;;;;;6.13;2.80;;;;;;;16.44;100.00;96694.72;5056994;28;20051;-65
2022/05/16 03:13:49;;;;;;;5.38;2.55;;;;;;;16.42;100.00;96699.88;5079906;28;20058;-65
2022/05/16 03:16:14;;;;;;;5.72;2.70;;;;;;;16.31;100.00;96696.38;5074335;28;20044;-65
2022/05/16 03:18:40;;;;;;;4.95;2.85;;;;;;;16.37;100.00;96699.53;5055331;28;20033;-66
2022/05/16 03:21:06;;;;;;;6.40;3.60;;;;;;;16.38;100.00;96693.56;5035821;28;20135;-66
2022/05/16 03:23:32;;;;;;;5.18;3.20;;;;;;;16.49;100.00;96692.72;5058899;28;20044;-65
2022/05/16 03:25:58;;;;;;;5.75;3.25;;;;;;;16.34;100.00;96692.03;5040477;28;20048;-67
2022/05/16 03:28:25;;;;;;;5.57;3.47;;;;;;;15.99;100.00;96689.06;5036333;28;20049;-66
2022/05/16 03:30:53;;;;;;;7.28;3.88;;;;;;;15.84;100.00;96691.09;5052085;28;20136;-67
2022/05/16 03:33:19;;;;;;;4.45;3.17;;;;;;;15.45;100.00;96692.03;5054547;28;20036;-65
2022/05/16 03:35:45;;;;;;;4.65;3.40;;;;;;;15.08;100.00;96686.97;5057853;28;20047;-65
2022/05/16 03:40:41;;;;;;;6.05;3.50;;;;;;;15.13;100.00;96691.31;5055537;28;20520;-65
2022/05/16 03:40:57;;;;;;;6.15;3.63;;;;;;;15.44;100.00;96701.47;5059612;28;20040;-67
2022/05/16 03:43:23;;;;;;;7.40;3.75;;;;;;;15.74;100.00;96696.66;5051478;28;20784;-68
2022/05/16 03:45:49;;;;;;;7.18;3.78;;;;;;;15.85;100.00;96706.50;5059453;28;20045;-66
2022/05/16 03:48:14;;;;;;;5.50;3.42;;;;;;;15.90;100.00;96713.59;5052220;28;20044;-68
2022/05/16 03:50:40;;;;;;;6.85;4.03;;;;;;;16.13;100.00;96710.28;5059293;28;20075;-67
2022/05/16 03:53:06;;;;;;;7.63;3.50;;;;;;;16.34;100.00;96722.44;5055501;28;20047;-65
2022/05/16 03:55:31;;;;;;;8.02;3.40;;;;;;;16.52;100.00;96720.34;5059342;28;20055;-66
2022/05/16 03:57:57;;;;;;;4.90;2.67;;;;;;;16.52;100.00;96727.84;5059110;28;20097;-66
2022/05/16 04:00:23;;;;;;;6.20;3.13;;;;;;;16.48;100.00;96727.09;5048097;28;20181;-66
2022/05/16 04:02:49;;;;;;;4.88;2.80;;;;;;;16.42;100.00;96727.53;5061688;28;20049;-66
2022/05/16 04:05:20;;;;;;;7.30;3.50;;;;;;;16.34;100.00;96737.03;5058701;28;20053;-66
2022/05/16 04:07:47;;;;;;;4.78;2.75;;;;;;;16.25;100.00;96748.53;5054559;28;20077;-66
2022/05/16 04:10:14;;;;;;;15.40;4.35;;;;;;;16.39;100.00;96752.41;5053840;28;20063;-67
2022/05/16 04:12:41;;;;;;;24.75;7.07;;;;;;;15.98;100.00;96753.00;5074359;28;20182;-68
2022/05/16 04:15:08;;;;;;;11.90;4.35;;;;;;;15.86;100.00;96743.19;5056783;28;20119;-70
2022/05/16 04:17:33;;;;;;;14.07;4.28;;;;;;;15.88;100.00;96749.09;5063573;28;20037;-69
2022/05/16 04:19:59;;;;;;;10.88;3.58;;;;;;;16.01;100.00;96749.44;5070004;28;20116;-69
2022/05/16 04:22:25;;;;;;;11.18;3.50;;;;;;;16.05;100.00;96744.69;5078221;28;20978;-69
2022/05/16 04:24:50;;;;;;;11.02;4.10;;;;;;;16.03;100.00;96736.81;5065769;28;20355;-69
2022/05/16 04:27:15;;;;;;;15.35;4.97;;;;;;;15.92;100.00;96730.53;5053890;28;20119;-68
2022/05/16 04:29:41;;;;;;;16.88;4.50;;;;;;;15.20;100.00;96727.94;5063365;28;20500;-69
2022/05/16 04:32:07;;;;;;;15.55;5.10;;;;;;;14.55;100.00;96727.16;5058291;28;20048;-68
2022/05/16 04:34:32;;;;;;;14.30;5.13;;;;;;;14.75;100.00;96735.03;5044818;28;20577;-68
2022/05/16 04:36:58;;;;;;;14.32;6.00;;;;;;;14.94;100.00;96745.69;5053907;28;20039;-67
2022/05/16 04:39:23;;;;;;;15.48;5.43;;;;;;;15.09;100.00;96752.00;5040334;28;20139;-66
2022/05/16 04:44:36;;;;;;;13.77;4.97;;;;;;;14.86;100.00;96738.63;5062980;28;20052;-66
2022/05/16 04:47:03;;;;;;;11.47;5.03;;;;;;;15.04;100.00;96750.44;5062638;28;20085;-66
2022/05/16 04:49:30;;;;;;;9.23;4.40;;;;;;;15.45;100.00;96761.03;5041380;28;20068;-66
2022/05/16 04:51:56;;;;;;;9.75;5.53;;;;;;;15.68;100.00;96757.00;5057682;28;20041;-66
2022/05/16 04:54:22;;;;;;;9.70;5.00;;;;;;;15.68;100.00;96757.81;5038752;28;20522;-67
2022/05/16 04:56:48;;;;;;;11.40;5.22;;;;;;;15.55;100.00;96773.22;5062548;28;20040;-66
2022/05/16 04:59:15;;;;;;;10.50;5.00;;;;;;;15.69;100.00;96786.22;5057854;28;20037;-66
2022/05/16 05:01:41;;;;;;;9.80;5.50;;;;;;;15.98;100.00;96819.31;5056457;28;20037;-67
2022/05/16 05:04:07;;;;;;;9.45;4.90;;;;;;;16.03;100.00;96833.50;5054507;28;20041;-69
2022/05/16 05:06:32;;;;;;;12.32;5.07;;;;;;;16.03;100.00;96830.72;5043920;28;20041;-68
2022/05/16 05:08:58;;;;;;;9.98;3.88;;;;;;;15.97;100.00;96843.38;5076064;28;20031;-70
2022/05/16 05:16:51;;;;;;;10.73;4.10;;;;;;;16.11;100.00;96861.88;5061996;28;20504;-68
2022/05/16 05:19:17;;;;;;;9.95;4.03;;;;;;;16.19;100.00;96866.22;5055745;28;20040;-66
2022/05/16 05:21:42;;;;;;;8.65;4.03;;;;;;;16.22;100.00;96870.13;5061205;28;20489;-66
2022/05/16 05:24:09;;;;;;;6.18;3.72;;;;;;;16.27;100.00;96875.25;5058046;28;20040;-67
2022/05/16 05:26:35;;;;;;;7.78;3.90;;;;;;;16.24;100.00;96873.28;5031705;28;20052;-67
2022/05/16 05:29:01;;;;;;;6.90;4.25;;;;;;;16.29;100.00;96872.09;5044543;28;20075;-67
2022/05/16 05:31:26;;;;;;;13.73;4.32;;;;;;;16.43;100.00;96877.56;5054691;28;20069;-70
2022/05/16 05:33:55;;;;;;;12.55;4.22;;;;;;;16.41;100.00;96875.19;5060679;28;20051;-69
2022/05/16 05:36:21;;;;;;;9.60;3.97;;;;;;;16.46;100.00;96887.03;5038723;28;20123;-69
2022/05/16 05:38:51;;;;;;;11.18;4.07;;;;;;;16.52;100.00;96902.03;5062358;28;20450;-70
2022/05/16 05:41:19;;;;;;;8.93;4.18;;;;;;;16.27;100.00;96910.41;5056392;28;20508;-68
2022/05/16 05:43:44;;;;;;;11.93;4.07;;;;;;;16.32;100.00;96898.94;5062558;28;20131;-69
2022/05/16 05:46:10;;;;;;;9.63;3.72;;;;;;;16.14;100.00;96891.47;5054806;28;20104;-69
2022/05/16 05:48:36;;;;;;;9.27;3.35;;;;;;;15.95;100.00;96891.91;5061810;28;20055;-69
2022/05/16 05:51:01;;;;;;;8.95;3.65;;;;;;;15.70;100.00;96883.63;5042926;28;20040;-70
2022/05/16 05:53:26;;;;;;;6.50;3.85;;;;;;;15.68;100.00;96906.09;5056882;28;20058;-71
2022/05/16 05:55:52;;;;;;;11.95;4.57;;;;;;;15.82;100.00;96908.88;5061358;28;20601;-69
2022/05/16 05:58:18;;;;;;;12.63;4.55;;;;;;;15.77;100.00;96912.06;5053722;28;20043;-70
2022/05/16 06:00:44;;;;;;;21.50;10.23;;;;;;;15.07;100.00;96903.31;5079798;28;20064;-69
2022/05/16 06:03:09;;;;;;;12.60;6.90;;;;;;;14.72;100.00;96900.06;5057891;28;20672;-70
2022/05/16 06:05:35;;;;;;;13.38;6.20;;;;;;;14.56;100.00;96899.59;5059471;28;20105;-70
2022/05/16 06:08:01;;;;;;;11.88;6.93;;;;;;;14.26;100.00;96891.59;5048380;28;20036;-69
2022/05/16 06:10:26;;;;;;;14.18;8.40;;;;;;;14.15;100.00;96897.03;5060069;28;20848;-69
2022/05/16 06:12:53;;;;;;;12.95;7.38;;;;;;;14.14;100.00;96914.75;5061004;28;20473;-68
2022/05/16 06:15:19;;;;;;;13.88;7.68;;;;;;;14.28;100.00;96909.31;5055633;28;20078;-68
2022/05/16 06:17:46;;;;;;;12.23;6.70;;;;;;;14.34;100.00;96915.25;5074916;22;20057;-65
2022/05/16 06:20:13;;;;;;;10.85;5.93;;;;;;;14.60;100.00;96921.69;5042458;28;20071;-65
2022/05/16 06:22:38;;;;;;;13.70;6.32;;;;;;;14.45;100.00;96915.31;5039747;28;20055;-65
2022/05/16 06:25:32;;;;;;;8.38;5.45;;;;;;;14.26;100.00;96897.09;5039177;28;20044;-64
2022/05/16 06:28:08;;;;;;;9.23;5.57;;;;;;;14.24;100.00;96908.53;5040313;28;20060;-66
2022/05/16 06:30:37;;;;;;;10.00;5.43;;;;;;;14.29;100.00;96919.16;5040121;28;20080;-64
2022/05/16 06:33:04;;;;;;;19.13;9.98;;;;;;;14.39;100.00;96919.63;5039266;28;20040;-63
2022/05/16 06:35:30;;;;;;;6.88;4.47;;;;;;;14.47;100.00;96907.44;5022755;28;20049;-64
2022/05/16 06:37:56;;;;;;;9.18;3.97;;;;;;;14.68;100.00;96923.31;5042338;28;20071;-64
2022/05/16 06:40:22;;;;;;;6.32;4.03;;;;;;;14.72;100.00;96924.88;5036928;28;20049;-66
2022/05/16 06:42:48;;;;;;;7.00;3.50;;;;;;;14.84;100.00;96926.50;5045444;28;20054;-66
2022/05/16 06:45:17;;;;;;;5.68;3.30;;;;;;;15.12;100.00;96941.53;5035970;28;20045;-65
2022/05/16 06:47:42;;;;;;;6.95;3.97;;;;;;;15.51;100.00;96956.59;5013715;28;20044;-65
2022/05/16 06:50:08;;;;;;;6.22;3.40;;;;;;;15.85;100.00;96957.03;5035084;28;20652;-64
2022/05/16 06:52:34;;;;;;;7.15;3.30;;;;;;;15.97;100.00;96953.06;5021471;28;20682;-66
2022/05/16 06:55:01;;;;;;;12.85;4.75;;;;;;;16.04;100.00;96956.63;5037469;28;20115;-64
2022/05/16 06:57:27;;;;;;;10.60;4.75;;;;;;;16.12;100.00;96967.69;5045756;28;20054;-64
2022/05/16 06:59:53;;;;;;;9.27;4.43;;;;;;;16.19;100.00;96962.16;5074549;28;20036;-65
2022/05/16 07:02:18;;;;;;;8.80;3.80;;;;;;;15.72;100.00;96958.56;5056133;28;20374;-64
2022/05/16 07:04:43;;;;;;;5.30;3.03;;;;;;;15.55;100.00;96966.44;5050175;28;20068;-64
2022/05/16 07:07:09;;;;;;;4.95;3.38;;;;;;;15.89;100.00;96973.59;5056526;28;20047;-65
2022/05/16 07:09:41;;;;;;;11.77;6.03;;;;;;;16.25;100.00;96969.59;5060161;28;20037;-65
2022/05/16 07:12:09;;;;;;;10.13;3.38;;;;;;;16.25;100.00;96982.66;5036715;28;20041;-65
2022/05/16 07:14:35;;;;;;;6.18;2.90;;;;;;;16.60;100.00;96989.28;5041058;28;20037;-65
2022/05/16 07:17:03;;;;;;;6.32;3.17;;;;;;;16.64;100.00;96976.25;5039717;28;20102;-65
2022/05/16 07:19:31;;;;;;;5.25;3.10;;;;;;;16.57;100.00;96985.34;5040729;28;20052;-65
2022/05/16 07:21:58;;;;;;;5.25;2.92;;;;;;;16.51;100.00;96975.91;5038990;28;20041;-65
2022/05/16 07:24:23;;;;;;;9.23;2.95;;;;;;;17.22;100.00;96973.25;5043180;28;20321;-65
2022/05/16 07:29:33;;;;;;;5.43;2.80;;;;;;;20.34;100.00;96975.25;5040708;28;20151;-66
2022/05/16 07:31:58;;;;;;;3.92;2.50;;;;;;;19.59;100.00;96974.47;5042549;28;20637;-66
2022/05/16 07:34:24;;;;;;;4.65;2.47;;;;;;;20.29;100.00;96974.94;5035197;28;20041;-66
2022/05/16 07:36:49;;;;;;;3.80;2.17;;;;;;;22.00;87.22;96980.19;5038243;28;20040;-65
2022/05/16 07:39:15;;;;;;;7.57;2.30;;;;;;;22.72;85.19;96984.72;5034349;28;20051;-64
2022/05/16 07:41:40;;;;;;;7.53;2.63;;;;;;;23.52;78.80;96986.84;5005870;28;20044;-64
2022/05/16 07:44:06;;;;;;;2.85;1.77;;;;;;;23.68;75.20;96980.34;5037971;28;20144;-65
2022/05/16 07:46:32;;;;;;;4.65;2.03;;;;;;;22.48;81.24;96986.97;5017749;28;20048;-64
2022/05/16 07:48:58;;;;;;;5.15;2.10;;;;;;;23.56;76.44;96987.50;5039983;28;20520;-65
2022/05/16 07:51:23;;;;;;;5.43;2.10;;;;;;;23.88;73.58;96985.75;5035021;28;20041;-64
2022/05/16 07:53:49;;;;;;;5.72;2.17;;;;;;;22.74;79.34;96993.44;5041139;28;20053;-65
2022/05/16 07:56:14;;;;;;;7.20;2.53;;;;;;;23.07;79.45;96990.56;5015026;28;20045;-63
2022/05/16 07:58:40;;;;;;;4.93;2.25;;;;;;;23.03;77.31;96992.63;5022853;28;20076;-66
2022/05/16 08:01:05;;;;;;;6.75;2.13;;;;;;;22.99;77.37;96992.72;5031473;28;20106;-66
2022/05/16 08:03:32;;;;;;;9.70;2.70;;;;;;;23.57;73.64;96989.06;5040423;28;20057;-63
2022/05/16 08:05:58;;;;;;;6.78;3.60;;;;;;;24.14;71.39;96989.28;5039831;28;20118;-65
2022/05/16 08:11:11;;;;;;;6.80;2.10;;;;;;;23.37;74.82;96991.28;5015625;28;20083;-65
2022/05/16 08:13:39;;;;;;;7.60;2.40;;;;;;;22.37;81.53;96992.03;5020330;28;20045;-63
2022/05/16 08:16:04;;;;;;;3.92;2.10;;;;;;;22.37;78.36;96997.63;5010219;28;20045;-64
2022/05/16 08:18:30;;;;;;;7.32;2.08;;;;;;;22.34;77.16;97002.06;5035301;28;20885;-65
2022/05/16 08:20:55;;;;;;;5.30;2.10;;;;;;;21.62;79.51;96998.19;5020320;28;20045;-64
2022/05/16 08:23:28;;;;;;;2.63;1.75;;;;;;;21.42;84.18;97000.97;5033572;28;20064;-64
2022/05/16 08:25:55;;;;;;;2.88;1.92;;;;;;;20.73;87.20;97003.59;5038928;28;20041;-64
2022/05/16 08:28:22;;;;;;;3.35;2.00;;;;;;;21.51;82.88;97011.56;5035224;28;20037;-64
2022/05/16 08:30:48;;;;;;;4.57;2.05;;;;;;;21.89;80.76;97009.09;5041978;28;20396;-64
2022/05/16 08:33:13;;;;;;;3.38;2.03;;;;;;;;;;5034151;28;20033;-64
2022/05/16 08:35:39;;;;;;;2.73;1.60;;;;;;;21.77;81.99;97007.78;5029098;28;20520;-64
2022/05/16 08:41:02;;;;;;;5.63;1.95;;;;;;;19.79;95.10;97007.94;5039547;28;20131;-64
2022/05/16 08:43:53;;;;;;;6.18;1.88;;;;;;;20.59;84.39;97008.19;5036134;28;20496;-65
2022/05/16 08:46:24;;;;;;;2.75;1.48;;;;;;;21.16;86.39;96999.97;5037471;28;20075;-65
2022/05/16 08:49:06;;;;;;;4.07;2.10;;;;;;;21.17;85.33;97009.88;5044253;28;20132;-64
2022/05/16 08:51:33;;;;;;;6.45;2.17;;;;;;;21.04;82.49;97011.75;5043161;28;20807;-64
2022/05/16 08:54:28;;;;;;;6.78;1.92;;;;;;;21.11;83.47;97008.81;5043402;28;20533;-64
2022/05/16 08:56:56;;;;;;;4.10;1.80;;;;;;;20.38;87.97;97003.81;5046698;28;20077;-64
2022/05/16 08:59:25;;;;;;;6.22;2.08;;;;;;;20.91;82.14;97004.03;5054631;28;20823;-65
2022/05/16 09:01:54;;;;;;;3.50;2.05;;;;;;;21.37;81.13;97002.28;5023245;28;20048;-64
2022/05/16 09:04:29;;;;;;;4.93;2.17;;;;;;;20.75;83.93;97006.75;5016767;28;20490;-64
2022/05/16 09:07:34;;;;;;;4.95;2.22;;;;;;;20.81;84.02;96999.44;5036061;28;20048;-64
2022/05/16 09:10:05;;;;;;;5.30;2.45;;;;;;;20.84;83.27;97004.16;5039726;28;20580;-64
2022/05/16 09:12:59;;;;;;;5.97;1.92;;;;;;;21.07;80.59;96997.75;5039307;28;20094;-65
2022/05/16 09:15:46;;;;;;;5.13;2.20;;;;;;;21.30;81.04;96991.31;5020590;28;20068;-64
2022/05/16 09:18:35;;;;;;;4.13;2.58;;;;;;;21.67;76.94;96988.53;5022120;28;20067;-64
2022/05/16 09:21:15;;;;;;;3.60;1.92;;;;;;;22.22;78.43;96981.22;5017356;28;20119;-64
2022/05/16 09:24:04;;;;;;;5.05;2.30;;;;;;;21.21;81.16;96988.28;5034655;28;20132;-64
2022/05/16 09:26:54;;;;;;;8.38;2.35;;;;;;;21.14;83.16;96985.66;5040539;28;20056;-64
2022/05/16 09:29:24;;;;;;;;;;;;;;;22.86;70.63;96977.97;5034965;28;20464;-64
2022/05/16 09:31:52;;;;;;;5.00;2.03;;;;;;;22.96;70.13;96976.88;5039167;28;19925;-64
2022/05/16 09:34:17;;;;;;;3.85;1.75;;;;;;;23.52;66.64;96972.09;5027440;28;20037;-64
2022/05/16 09:36:48;;;;;;;3.55;1.60;;;;;;;23.58;67.53;96970.28;5042045;28;20037;-64
2022/05/16 09:39:23;;;;;;;9.60;4.90;;;;;;;24.68;62.78;96976.28;5037460;28;20128;-64
2022/05/16 09:41:48;;;;;;;4.90;2.30;;;;;;;25.27;61.84;96973.75;5049898;28;20064;-64
2022/05/16 09:44:27;;;;;;;9.07;2.70;;;;;;;23.82;66.53;96962.34;5036660;28;20059;-64
2022/05/16 09:47:15;;;;;;;4.75;2.38;;;;;;;24.31;63.28;96969.53;5019722;28;21157;-64
2022/05/16 09:49:41;;;;;;;6.47;2.85;;;;;;;24.79;58.91;96967.50;5040038;28;20045;-64
2022/05/16 09:52:15;;;;;;;5.43;2.40;;;;;;;23.74;62.21;96964.56;5036039;28;20076;-64
2022/05/16 09:54:40;;;;;;;4.57;2.40;;;;;;;25.30;56.64;96963.63;5039352;28;20401;-64
2022/05/16 09:57:15;;;;;;;9.63;2.38;;;;;;;26.03;53.67;96963.19;5034400;28;20037;-64
2022/05/16 09:59:57;;;;;;;6.03;1.90;;;;;;;26.93;52.97;96955.78;5041051;28;20071;-64
2022/05/16 10:02:31;;;;;;;5.45;2.17;;;;;;;27.17;52.45;96955.88;5037793;28;20867;-64
2022/05/16 10:05:20;;;;;;;4.60;1.98;;;;;;;26.98;55.31;96950.31;5041556;28;20055;-64
2022/05/16 10:07:49;;;;;;;6.45;2.60;;;;;;;26.77;54.46;96946.41;5039901;28;20037;-64
2022/05/16 10:10:22;;;;;;;6.93;2.60;;;;;;;26.41;57.93;96947.94;5035017;28;21215;-64
2022/05/16 10:12:50;;;;;;;7.60;2.60;;;;;;;26.36;56.47;96957.00;5041253;28;20049;-64
2022/05/16 10:15:17;;;;;;;11.13;3.47;;;;;;;25.27;57.52;96951.34;5034980;28;20033;-64
2022/05/16 10:17:44;;;;;;;4.07;2.42;;;;;;;25.55;58.35;96951.44;5037920;28;20128;-64
2022/05/16 10:20:16;;;;;;;5.93;2.42;;;;;;;26.19;55.73;96955.75;5032422;28;20103;-64
2022/05/16 10:22:43;;;;;;;6.13;2.83;;;;;;;26.37;53.94;96954.97;5041358;28;20045;-64
2022/05/16 10:25:18;;;;;;;5.10;2.60;;;;;;;27.01;55.04;96949.38;5036383;28;20612;-64
2022/05/16 10:27:46;;;;;;;8.45;2.67;;;;;;;27.37;53.93;96949.75;5037246;28;20481;-64
2022/05/16 10:30:25;;;;;;;5.22;2.47;;;;;;;26.93;54.38;96947.34;5018885;28;20592;-64
2022/05/16 10:35:50;;;;;;;6.22;2.60;;;;;;;27.17;51.32;96959.50;5040198;28;20131;-64
2022/05/16 10:38:36;;;;;;;6.45;2.80;;;;;;;27.18;50.35;96952.59;5037136;28;20076;-67
2022/05/16 10:41:07;;;;;;;9.50;3.22;;;;;;;26.82;51.40;96948.59;5024448;28;20034;-65
2022/05/16 10:43:42;;;;;;;9.52;3.65;;;;;;;26.64;52.76;96945.81;5037877;28;20528;-65
2022/05/16 10:46:18;;;;;;;7.63;3.47;;;;;;;27.01;49.88;96943.75;5031972;28;20072;-65
2022/05/16 10:48:50;;;;;;;6.10;3.30;;;;;;;26.70;52.80;96943.94;5038827;28;20061;-64
2022/05/16 10:51:33;;;;;;;6.55;3.67;;;;;;;26.92;51.66;96952.19;5034452;28;20045;-64
2022/05/16 10:54:06;;;;;;;6.55;3.58;;;;;;;26.93;50.63;96944.53;5038378;28;20041;-66
2022/05/16 10:57:04;;;;;;;6.93;4.00;;;;;;;27.28;52.21;96942.16;5035548;28;20087;-64
2022/05/16 10:59:32;;;;;;;8.07;3.85;;;;;;;27.44;49.35;96943.81;5036577;28;20049;-65
2022/05/16 11:02:16;;;;;;;9.43;4.13;;;;;;;26.59;51.15;96946.41;5056599;28;20307;-65
2022/05/16 11:04:59;;;;;;;8.10;4.93;;;;;;;26.58;51.39;96947.63;5047378;28;20041;-64
2022/05/16 11:07:31;;;;;;;5.80;3.40;;;;;;;26.52;53.91;96936.25;5042349;28;20056;-64
2022/05/16 11:10:11;;;;;;;6.80;3.40;;;;;;;26.91;51.66;96938.63;5011456;28;20047;-64
2022/05/16 11:12:48;;;;;;;8.27;3.33;;;;;;;26.76;53.50;96933.63;5019877;28;20098;-64
2022/05/16 11:15:16;;;;;;;5.22;3.67;;;;;;;26.73;52.75;96931.75;5018137;28;20098;-64
2022/05/16 11:18:01;;;;;;;6.30;3.53;;;;;;;26.11;55.11;96933.59;5041858;28;20047;-64
2022/05/16 11:20:43;;;;;;;6.90;2.90;;;;;;;26.31;56.31;96927.53;5015445;28;20573;-64
2022/05/16 11:23:41;;;;;;;11.60;3.22;;;;;;;26.47;51.03;96928.44;4999719;28;20088;-63
2022/05/16 11:26:19;;;;;;;6.15;3.20;;;;;;;26.49;48.96;96934.41;5011874;28;20053;-63
2022/05/16 11:29:17;;;;;;;8.70;2.90;;;;;;;26.33;51.96;96918.63;5040523;28;20520;-65
2022/05/16 11:31:40;;;;;;;5.88;2.75;;;;;;;26.35;51.57;96918.94;5044680;28;20484;-63
2022/05/16 11:34:11;;;;;;;8.10;2.97;;;;;;;26.62;51.16;96912.56;5034464;28;20041;-63
2022/05/16 11:36:47;;;;;;;8.95;2.88;;;;;;;26.75;49.21;96917.25;5036014;28;20059;-64
2022/05/16 11:39:37;;;;;;;9.68;3.00;;;;;;;26.73;50.06;96905.69;5034346;28;20098;-64
2022/05/16 11:42:16;;;;;;;10.13;2.85;;;;;;;26.76;50.97;96902.72;5039514;28;20051;-63
2022/05/16 11:45:08;;;;;;;6.95;2.65;;;;;;;27.17;51.89;96906.09;5015016;28;20049;-64
2022/05/16 11:47:43;;;;;;;9.57;2.67;;;;;;;26.70;50.31;96905.41;5040772;28;20057;-65
2022/05/16 11:50:12;;;;;;;8.35;3.13;;;;;;;26.97;51.30;96895.34;5036694;28;20076;-65
2022/05/16 11:53:00;;;;;;;6.75;2.78;;;;;;;27.04;46.93;96894.22;5040766;28;20037;-64
2022/05/16 12:01:31;;;;;;;10.23;2.63;;;;;;;26.78;48.79;96893.84;4993718;28;20040;-65
2022/05/16 12:04:20;;;;;;;8.70;2.25;;;;;;;26.80;47.08;96891.34;5037261;28;20052;-64
2022/05/16 12:06:53;;;;;;;8.38;2.40;;;;;;;26.65;46.78;96893.97;5040757;28;20048;-65
2022/05/16 12:09:24;;;;;;;7.65;2.25;;;;;;;26.46;49.45;96888.34;5034868;28;20044;-65
2022/05/16 12:12:00;;;;;;;8.25;2.65;;;;;;;26.69;47.90;96886.97;5040939;28;20044;-65
2022/05/16 12:14:41;;;;;;;13.90;2.83;;;;;;;26.55;46.92;96881.97;5027988;28;20048;-64